Time;durP1;ratioP1;P1;durP2;ratioP2;P2;SDS_P1;SDS_P2;PMS_P1;PMS_P2;Temp;Humidity;BMP_temperature;BMP_pressure;BME280_temperature;BME280_humidity;BME280_pressure;Samples;Min_cycle;Max_cycle;Signal;HPM_P1;HPM_P2
2022/12/16 00:02:05;;;;;;;29.70;11.43;;;;;;;;;;5092413;28;20513;-69
2022/12/16 00:04:31;;;;;;;28.48;10.55;;;;;;;;;;5078943;28;20440;-69
2022/12/16 00:06:57;;;;;;;23.25;10.70;;;;;;;;;;5079210;28;20081;-69
2022/12/16 00:09:23;;;;;;;24.52;9.52;;;;;;;;;;5102492;28;20542;-69
2022/12/16 00:11:49;;;;;;;22.92;9.77;;;;;;;;;;5100629;28;20051;-69
2022/12/16 00:14:16;;;;;;;22.80;9.10;;;;;;;;;;5101842;28;20040;-70
2022/12/16 00:16:42;;;;;;;19.38;8.98;;;;;;;;;;5101364;28;20099;-69
2022/12/16 00:19:08;;;;;;;25.15;8.77;;;;;;;;;;5094654;28;20605;-69
2022/12/16 00:21:35;;;;;;;22.58;9.43;;;;;;;;;;5098350;28;20047;-69
2022/12/16 00:24:01;;;;;;;24.00;9.38;;;;;;;;;;5096679;28;20040;-69
2022/12/16 00:26:30;;;;;;;26.70;9.88;;;;;;;;;;5100704;28;20040;-69
2022/12/16 00:28:56;;;;;;;21.23;9.00;;;;;;;;;;5099145;28;20495;-69
2022/12/16 00:31:22;;;;;;;19.30;9.02;;;;;;;;;;5093077;28;20551;-69
2022/12/16 00:33:48;;;;;;;22.48;8.20;;;;;;;;;;5096658;28;20128;-69
2022/12/16 00:36:15;;;;;;;25.92;8.95;;;;;;;;;;5096069;28;20409;-69
2022/12/16 00:38:41;;;;;;;22.55;8.88;;;;;;;;;;5079862;28;20122;-69
2022/12/16 00:41:08;;;;;;;26.17;8.93;;;;;;;;;;5099756;28;20067;-69
2022/12/16 00:43:34;;;;;;;20.58;9.13;;;;;;;;;;5078940;28;20040;-69
2022/12/16 00:46:00;;;;;;;24.90;8.65;;;;;;;;;;5101790;28;20074;-69
2022/12/16 00:48:26;;;;;;;23.58;9.00;;;;;;;;;;5077697;28;20214;-69
2022/12/16 00:50:53;;;;;;;20.73;8.32;;;;;;;;;;5097966;28;20047;-69
2022/12/16 00:53:20;;;;;;;31.55;8.93;;;;;;;;;;5096237;28;20031;-69
2022/12/16 00:55:46;;;;;;;22.05;7.55;;;;;;;;;;5100045;28;20048;-69
2022/12/16 00:58:13;;;;;;;18.67;7.32;;;;;;;;;;5097066;28;20039;-69
2022/12/16 01:00:39;;;;;;;25.02;7.28;;;;;;;;;;5078501;28;20107;-69
2022/12/16 01:03:05;;;;;;;22.83;8.80;;;;;;;;;;5080099;28;20074;-69
2022/12/16 01:05:31;;;;;;;22.23;8.18;;;;;;;;;;5077087;28;20089;-69
2022/12/16 01:07:57;;;;;;;24.25;8.20;;;;;;;;;;5076195;28;20142;-69
2022/12/16 01:10:24;;;;;;;20.45;7.90;;;;;;;;;;5097189;28;20047;-69
2022/12/16 01:12:51;;;;;;;27.30;9.52;;;;;;;;;;5098715;28;20036;-69
2022/12/16 01:15:17;;;;;;;21.25;8.60;;;;;;;;;;5094679;28;20104;-69
2022/12/16 01:17:44;;;;;;;23.13;8.88;;;;;;;;;;5098142;28;20040;-69
2022/12/16 01:20:10;;;;;;;21.77;8.63;;;;;;;;;;5096258;28;20040;-69
2022/12/16 01:22:36;;;;;;;21.73;9.63;;;;;;;;;;5098405;28;20353;-69
2022/12/16 01:25:03;;;;;;;25.70;10.95;;;;;;;;;;5098053;28;21639;-69
2022/12/16 01:27:29;;;;;;;29.88;10.93;;;;;;;;;;5075835;28;20103;-69
2022/12/16 01:29:55;;;;;;;26.13;11.90;;;;;;;;;;5094769;28;20096;-69
2022/12/16 01:32:22;;;;;;;19.65;10.43;;;;;;;;;;5093652;28;20096;-69
2022/12/16 01:34:51;;;;;;;29.38;10.43;;;;;;;;;;5076841;28;20936;-69
2022/12/16 01:37:19;;;;;;;21.00;9.95;;;;;;;;;;5076124;28;20040;-69
2022/12/16 01:39:45;;;;;;;23.60;10.48;;;;;;;;;;5094404;28;20048;-69
2022/12/16 01:42:12;;;;;;;25.80;11.07;;;;;;;;;;5039100;28;1125455;-69
2022/12/16 01:44:39;;;;;;;22.63;10.05;;;;;;;;;;5096842;28;20070;-69
2022/12/16 01:47:05;;;;;;;22.48;10.52;;;;;;;;;;5074750;28;20046;-69
2022/12/16 01:49:36;;;;;;;18.45;9.40;;;;;;;;;;5083958;28;20065;-69
2022/12/16 01:52:04;;;;;;;26.60;9.77;;;;;;;;;;5077577;28;20051;-69
2022/12/16 01:54:34;;;;;;;19.95;9.88;;;;;;;;;;5098637;28;20483;-69
2022/12/16 01:57:02;;;;;;;27.15;10.27;;;;;;;;;;5076676;28;20047;-69
2022/12/16 01:59:29;;;;;;;21.63;9.35;;;;;;;;;;5075737;28;21429;-69
2022/12/16 02:01:55;;;;;;;24.05;10.85;;;;;;;;;;5095696;28;20035;-69
2022/12/16 02:04:22;;;;;;;21.83;9.48;;;;;;;;;;5093893;28;20574;-69
2022/12/16 02:06:48;;;;;;;26.38;9.85;;;;;;;;;;5096919;28;20043;-69
2022/12/16 02:09:15;;;;;;;17.63;8.80;;;;;;;;;;5096890;28;20035;-69
2022/12/16 02:12:06;;;;;;;19.75;9.25;;;;;;;;;;5099758;28;20074;-69
2022/12/16 02:14:32;;;;;;;22.00;9.50;;;;;;;;;;5097334;28;20063;-69
2022/12/16 02:17:14;;;;;;;23.55;9.23;;;;;;;;;;5080798;28;20462;-69
2022/12/16 02:19:55;;;;;;;22.15;9.77;;;;;;;;;;5080114;28;20047;-69
2022/12/16 02:22:24;;;;;;;24.70;8.73;;;;;;;;;;5096084;28;20044;-69
2022/12/16 02:25:01;;;;;;;33.67;9.70;;;;;;;;;;5077911;28;20055;-69
2022/12/16 02:27:31;;;;;;;25.58;9.32;;;;;;;;;;5077106;28;20044;-69
2022/12/16 02:30:06;;;;;;;25.58;9.38;;;;;;;;;;5093815;28;20048;-68
2022/12/16 02:32:33;;;;;;;20.92;8.90;;;;;;;;;;5097228;28;20047;-69
2022/12/16 02:35:09;;;;;;;20.05;8.90;;;;;;;;;;5094836;28;20069;-69
2022/12/16 02:37:36;;;;;;;21.65;9.10;;;;;;;;;;5089428;28;20050;-69
2022/12/16 02:40:04;;;;;;;19.42;9.35;;;;;;;;;;5095232;28;20035;-69
2022/12/16 02:42:34;;;;;;;21.33;9.40;;;;;;;;;;5097895;28;20197;-69
2022/12/16 02:45:01;;;;;;;23.30;8.98;;;;;;;;;;5074929;28;20032;-69
2022/12/16 02:47:28;;;;;;;21.35;8.70;;;;;;;;;;5078206;28;20083;-69
2022/12/16 02:49:54;;;;;;;17.55;7.90;;;;;;;;;;5080760;28;20059;-69
2022/12/16 02:52:22;;;;;;;16.00;8.50;;;;;;;;;;5100688;28;20159;-69
2022/12/16 02:54:50;;;;;;;19.25;8.65;;;;;;;;;;5082492;28;20480;-69
2022/12/16 02:57:32;;;;;;;20.70;8.82;;;;;;;;;;5075957;28;20066;-69
2022/12/16 03:00:02;;;;;;;18.77;7.97;;;;;;;;;;5076803;28;20437;-69
2022/12/16 03:02:36;;;;;;;19.52;8.65;;;;;;;;;;5076881;28;20477;-69
2022/12/16 03:05:06;;;;;;;16.25;7.65;;;;;;;;;;5096914;28;20399;-69
2022/12/16 03:07:33;;;;;;;15.90;7.90;;;;;;;;;;5077655;28;20058;-68
2022/12/16 03:10:00;;;;;;;16.30;8.57;;;;;;;;;;5078587;28;20039;-69
2022/12/16 03:12:26;;;;;;;15.98;7.13;;;;;;;;;;5094783;28;20054;-69
2022/12/16 03:14:53;;;;;;;16.05;6.85;;;;;;;;;;5096108;28;20093;-69
2022/12/16 03:17:21;;;;;;;13.18;7.22;;;;;;;;;;5093463;28;20070;-69
2022/12/16 03:19:52;;;;;;;11.18;6.60;;;;;;;;;;5078636;28;20039;-69
2022/12/16 03:22:20;;;;;;;10.63;6.03;;;;;;;;;;5096224;28;20040;-70
2022/12/16 03:24:47;;;;;;;17.00;6.47;;;;;;;;;;5080785;28;20055;-69
2022/12/16 03:27:17;;;;;;;13.43;7.00;;;;;;;;;;5099204;28;20039;-69
2022/12/16 03:29:49;;;;;;;12.52;7.20;;;;;;;;;;5077230;28;20052;-69
2022/12/16 03:32:22;;;;;;;12.93;6.63;;;;;;;;;;5095341;28;20051;-69
2022/12/16 03:34:51;;;;;;;12.45;7.00;;;;;;;;;;5073779;28;20094;-69
2022/12/16 03:37:20;;;;;;;14.80;6.70;;;;;;;;;;5094532;28;20434;-69
2022/12/16 03:39:48;;;;;;;14.85;6.68;;;;;;;;;;5095560;28;20043;-69
2022/12/16 03:42:15;;;;;;;14.02;8.40;;;;;;;;;;5095654;28;20058;-69
2022/12/16 03:44:42;;;;;;;18.30;7.75;;;;;;;;;;5080375;28;20455;-69
2022/12/16 03:47:09;;;;;;;17.85;8.27;;;;;;;;;;5076893;28;20039;-69
2022/12/16 03:49:36;;;;;;;12.60;7.65;;;;;;;;;;5076205;28;20054;-69
2022/12/16 03:52:02;;;;;;;17.15;7.72;;;;;;;;;;5094743;28;20070;-69
2022/12/16 03:54:28;;;;;;;17.90;7.18;;;;;;;;;;5092972;28;20040;-69
2022/12/16 03:56:54;;;;;;;17.25;7.47;;;;;;;;;;5099416;28;20047;-69
2022/12/16 03:59:21;;;;;;;19.67;7.00;;;;;;;;;;5095375;28;20067;-69
2022/12/16 04:01:47;;;;;;;16.58;6.72;;;;;;;;;;5075154;28;20073;-69
2022/12/16 04:04:13;;;;;;;13.23;7.05;;;;;;;;;;5075619;28;20048;-69
2022/12/16 04:06:39;;;;;;;17.02;7.47;;;;;;;;;;5093442;28;20043;-69
2022/12/16 04:09:06;;;;;;;14.23;6.72;;;;;;;;;;5093618;28;20048;-69
2022/12/16 04:25:21;;;;;;;12.68;6.28;;;;;;;;;;5092473;28;20495;-69
2022/12/16 04:27:47;;;;;;;12.38;6.15;;;;;;;;;;5093143;28;20039;-69
2022/12/16 04:30:17;;;;;;;11.57;6.25;;;;;;;;;;5073660;28;20059;-69
